Time;durP1;ratioP1;P1;durP2;ratioP2;P2;SDS_P1;SDS_P2;PMS_P1;PMS_P2;Temp;Humidity;BMP_temperature;BMP_pressure;BME280_temperature;BME280_humidity;BME280_pressure;Samples;Min_cycle;Max_cycle;Signal;HPM_P1;HPM_P2
2023/04/09 00:01:33;;;;;;;37.50;26.80;;;;;;;4.30;96.51;97793.86;110292;1244;69760;-76
2023/04/09 00:04:02;;;;;;;37.10;25.90;;;;;;;4.29;95.85;97793.58;110103;1244;59009;-76
2023/04/09 00:06:31;;;;;;;35.70;25.50;;;;;;;4.28;95.31;97793.80;110259;1241;58909;-77
2023/04/09 00:09:00;;;;;;;33.70;23.90;;;;;;;4.27;94.84;97796.95;110254;1244;71139;-76
2023/04/09 00:11:30;;;;;;;35.10;24.00;;;;;;;4.25;94.58;97792.69;110147;1244;69233;-77
2023/04/09 00:13:59;;;;;;;35.10;24.10;;;;;;;4.24;93.21;97793.27;110227;1241;69692;-77
2023/04/09 00:16:28;;;;;;;35.40;24.80;;;;;;;4.22;93.14;97792.64;110230;1244;58864;-77
2023/04/09 00:18:57;;;;;;;34.10;24.70;;;;;;;4.22;96.21;97794.92;110225;1242;58843;-78
2023/04/09 00:21:26;;;;;;;37.50;25.70;;;;;;;4.21;98.71;97794.78;110244;1243;70765;-75
2023/04/09 00:23:55;;;;;;;36.50;27.50;;;;;;;4.21;99.65;97793.05;110264;1241;69224;-75
2023/04/09 00:26:24;;;;;;;38.30;24.90;;;;;;;4.20;99.03;97792.39;110102;1244;67450;-76
2023/04/09 00:28:54;;;;;;;35.70;24.20;;;;;;;4.19;99.82;97792.44;110131;1244;58940;-77
2023/04/09 00:31:24;;;;;;;;;;;;;;;4.19;98.87;97795.21;110351;1244;58888;-77
2023/04/09 00:33:54;;;;;;;35.10;24.60;;;;;;;4.18;99.69;97795.05;111018;1244;71097;-76
2023/04/09 00:36:23;;;;;;;32.00;22.70;;;;;;;4.19;99.90;97795.70;112011;1242;68456;-75
2023/04/09 00:38:54;;;;;;;36.80;26.80;;;;;;;4.20;99.69;97798.94;110223;1242;68498;-76
2023/04/09 00:41:24;;;;;;;36.80;27.40;;;;;;;4.21;100.00;97803.23;110330;1243;58915;-76
2023/04/09 00:43:56;;;;;;;39.90;28.50;;;;;;;4.22;100.00;97800.77;110243;1241;58838;-76
2023/04/09 00:46:25;;;;;;;41.90;28.10;;;;;;;4.22;100.00;97800.74;110286;1244;70485;-77
2023/04/09 00:48:54;;;;;;;40.40;29.90;;;;;;;4.24;100.00;97801.71;110230;1241;69735;-76
2023/04/09 00:51:24;;;;;;;36.60;25.30;;;;;;;4.22;99.91;97797.47;110137;1244;69612;-76
2023/04/09 00:53:54;;;;;;;37.90;26.00;;;;;;;4.22;98.49;97800.26;110249;1242;58992;-76
2023/04/09 00:56:26;;;;;;;32.10;23.90;;;;;;;4.21;96.64;97799.06;110240;1244;58882;-76
2023/04/09 00:58:56;;;;;;;31.80;23.50;;;;;;;4.18;95.58;97801.08;110250;1241;70606;-76
2023/04/09 01:01:25;;;;;;;31.90;22.70;;;;;;;4.16;95.22;97798.77;110239;1243;68415;-77
2023/04/09 01:03:55;;;;;;;32.30;21.70;;;;;;;4.13;95.24;97803.20;110290;1241;69151;-76
2023/04/09 01:06:45;;;;;;;32.40;24.30;;;;;;;4.12;97.71;97800.70;110329;1244;58913;-76
2023/04/09 01:09:24;;;;;;;;;;;;;;;4.09;100.00;97800.73;110352;1244;58892;-77
2023/04/09 01:12:08;;;;;;;31.50;22.50;;;;;;;4.09;100.00;97803.34;110377;1241;70631;-77
2023/04/09 01:14:49;;;;;;;30.00;20.60;;;;;;;4.09;100.00;97806.30;110302;1244;69248;-77
2023/04/09 01:17:37;;;;;;;30.20;21.40;;;;;;;4.08;100.00;97803.56;110237;1244;69169;-77
2023/04/09 01:20:30;;;;;;;30.50;22.10;;;;;;;4.08;100.00;97806.14;110279;1243;58884;-76
2023/04/09 01:23:10;;;;;;;30.80;21.80;;;;;;;4.08;100.00;97804.63;110276;1242;58912;-77
2023/04/09 01:26:18;;;;;;;27.10;19.50;;;;;;;4.06;100.00;97804.84;110107;1244;71160;-76
2023/04/09 01:28:56;;;;;;;25.90;18.30;;;;;;;4.06;98.04;97805.36;110253;1244;68940;-77
2023/04/09 01:31:30;;;;;;;23.30;17.80;;;;;;;4.05;97.02;97807.29;110242;1244;69097;-77
2023/04/09 01:34:00;;;;;;;27.80;19.90;;;;;;;4.04;96.50;97805.83;110258;1244;58899;-76
2023/04/09 01:36:32;;;;;;;22.70;16.50;;;;;;;4.03;96.98;97804.11;110243;1245;58950;-76
2023/04/09 01:39:03;;;;;;;26.00;18.40;;;;;;;4.02;96.73;97805.89;110265;1244;70440;-76
2023/04/09 01:41:35;;;;;;;25.40;18.80;;;;;;;4.01;98.85;97804.54;110254;1241;69414;-77
2023/04/09 01:44:04;;;;;;;;;;;;;;;4.01;99.23;97807.31;110315;1243;69134;-77
2023/04/09 01:46:36;;;;;;;28.80;19.60;;;;;;;4.00;99.98;97808.20;110343;1241;58871;-77
2023/04/09 01:49:08;;;;;;;30.90;20.70;;;;;;;3.99;100.00;97803.92;111928;1241;58096;-77
2023/04/09 01:51:41;;;;;;;27.10;19.90;;;;;;;3.99;100.00;97800.16;110682;1241;69831;-77
2023/04/09 01:54:11;;;;;;;28.50;21.30;;;;;;;3.99;100.00;97803.60;110398;1244;69236;-76
2023/04/09 01:56:46;;;;;;;27.30;19.60;;;;;;;3.99;100.00;97802.07;110254;1243;69320;-77
2023/04/09 01:59:15;;;;;;;27.90;20.00;;;;;;;3.98;100.00;97795.70;110267;1244;58898;-77
2023/04/09 02:01:48;;;;;;;28.70;20.60;;;;;;;3.97;100.00;97796.07;110133;1241;59325;-77
2023/04/09 02:04:29;;;;;;;29.30;20.70;;;;;;;3.95;100.00;97794.78;110257;1241;70418;-76
2023/04/09 02:07:10;;;;;;;28.30;19.90;;;;;;;3.94;100.00;97798.11;109464;1245;665804;-76
2023/04/09 02:09:43;;;;;;;27.90;19.70;;;;;;;3.93;100.00;97796.75;110207;1243;68202;-76
2023/04/09 02:12:17;;;;;;;23.40;17.10;;;;;;;3.94;100.00;97798.27;110156;1241;58869;-77
2023/04/09 02:14:49;;;;;;;28.90;20.20;;;;;;;3.94;100.00;97799.46;110292;1242;58888;-76
2023/04/09 02:17:19;;;;;;;29.60;20.10;;;;;;;3.94;100.00;97800.69;110265;1244;69826;-77
2023/04/09 02:19:48;;;;;;;26.60;20.50;;;;;;;3.94;100.00;97795.87;110239;1244;68208;-78
2023/04/09 02:22:17;;;;;;;25.50;19.50;;;;;;;3.93;100.00;97795.40;110258;1242;70224;-78
2023/04/09 02:24:47;;;;;;;27.40;18.40;;;;;;;3.91;100.00;97794.06;110194;1241;58899;-77
2023/04/09 02:27:16;;;;;;;27.70;19.10;;;;;;;3.89;100.00;97792.60;110280;1244;58907;-78
2023/04/09 02:29:46;;;;;;;24.10;16.80;;;;;;;3.88;100.00;97786.80;110242;1244;70673;-78
2023/04/09 02:32:15;;;;;;;26.30;19.10;;;;;;;3.87;100.00;97786.64;110267;1244;70204;-78
2023/04/09 02:34:45;;;;;;;26.20;18.40;;;;;;;3.85;100.00;97786.04;110126;1244;69271;-77
2023/04/09 02:37:15;;;;;;;24.40;17.70;;;;;;;3.82;100.00;97787.34;110254;1244;58909;-77
2023/04/09 02:39:45;;;;;;;23.00;16.70;;;;;;;3.81;100.00;97786.35;110246;1245;58855;-77
2023/04/09 02:42:20;;;;;;;24.90;17.60;;;;;;;3.80;100.00;97785.05;110297;1244;69841;-78
2023/04/09 02:44:50;;;;;;;26.30;18.00;;;;;;;3.78;100.00;97783.88;110231;1241;69213;-78
2023/04/09 02:47:20;;;;;;;25.90;18.30;;;;;;;3.77;100.00;97781.85;110261;1248;69134;-77
2023/04/09 02:49:50;;;;;;;24.80;17.90;;;;;;;3.77;100.00;97782.58;110259;1242;58896;-77
2023/04/09 02:52:23;;;;;;;23.80;17.10;;;;;;;3.76;100.00;97780.54;110240;1244;59129;-77
2023/04/09 02:54:52;;;;;;;23.90;17.70;;;;;;;3.76;100.00;97777.46;110219;1244;70607;-77
2023/04/09 02:57:21;;;;;;;21.20;15.10;;;;;;;3.76;100.00;97779.50;110270;1241;69386;-78
2023/04/09 02:59:49;;;;;;;23.80;16.40;;;;;;;3.76;100.00;97781.05;110354;1241;68475;-77
2023/04/09 03:02:19;;;;;;;20.70;14.10;;;;;;;3.75;99.87;97780.56;111632;1241;58813;-76
2023/04/09 03:04:51;;;;;;;19.30;14.80;;;;;;;3.76;99.22;97783.31;111225;1244;58894;-75
2023/04/09 03:07:21;;;;;;;20.50;14.70;;;;;;;3.76;98.91;97782.80;110340;1244;71170;-77
2023/04/09 03:09:50;;;;;;;18.70;14.10;;;;;;;3.76;98.57;97784.00;110221;1244;67743;-78
2023/04/09 03:12:19;;;;;;;20.00;14.90;;;;;;;3.76;97.96;97784.02;110249;1243;69295;-77
2023/04/09 03:14:49;;;;;;;21.40;14.20;;;;;;;3.75;97.55;97783.02;110251;1241;58980;-77
2023/04/09 03:17:20;;;;;;;22.50;15.60;;;;;;;3.73;97.13;97783.39;110261;1245;59225;-76
2023/04/09 03:19:49;;;;;;;19.50;15.10;;;;;;;3.71;96.89;97782.12;110206;1245;70433;-75
2023/04/09 03:22:20;;;;;;;19.60;14.60;;;;;;;3.68;98.61;97784.99;109997;1245;68925;-76
2023/04/09 03:24:52;;;;;;;24.00;16.80;;;;;;;3.67;98.00;97788.65;110172;1241;69078;-76
2023/04/09 03:27:22;;;;;;;24.30;18.00;;;;;;;3.65;99.58;97793.21;110161;1241;59001;-76
2023/04/09 03:29:55;;;;;;;22.40;18.50;;;;;;;3.64;100.00;97795.14;110075;1244;58885;-76
2023/04/09 03:32:30;;;;;;;26.40;18.60;;;;;;;3.61;100.00;97796.48;110237;1244;70556;-77
2023/04/09 03:34:59;;;;;;;22.70;17.40;;;;;;;3.61;100.00;97797.38;110224;1244;68890;-77
2023/04/09 03:37:29;;;;;;;;;;;;;;;3.59;100.00;97800.49;110211;1244;68497;-76
2023/04/09 03:39:58;;;;;;;25.50;17.90;;;;;;;3.57;100.00;97800.24;110259;1245;58953;-76
2023/04/09 03:42:28;;;;;;;24.30;17.60;;;;;;;3.56;100.00;97800.63;110288;1241;58925;-76
2023/04/09 03:44:57;;;;;;;26.40;18.10;;;;;;;3.56;100.00;97802.52;110206;1241;70660;-76
2023/04/09 03:47:35;;;;;;;23.80;16.90;;;;;;;3.55;100.00;97805.98;110309;1241;67607;-76
2023/04/09 03:50:06;;;;;;;21.30;16.30;;;;;;;3.55;100.00;97803.42;110075;1241;68997;-77
2023/04/09 03:52:46;;;;;;;22.80;17.30;;;;;;;3.55;100.00;97808.23;110722;1244;58916;-77
2023/04/09 03:55:16;;;;;;;24.30;16.70;;;;;;;3.55;100.00;97808.23;110670;1245;58879;-78
2023/04/09 03:57:46;;;;;;;25.40;18.20;;;;;;;3.55;100.00;97808.22;110479;1244;69701;-78
2023/04/09 04:00:18;;;;;;;28.70;20.80;;;;;;;3.57;100.00;97813.52;110325;1244;69289;-76
2023/04/09 04:03:06;;;;;;;24.60;17.80;;;;;;;3.55;100.00;97815.98;110250;1241;68515;-76
2023/04/09 04:06:00;;;;;;;25.10;16.80;;;;;;;3.52;100.00;97817.34;110211;1244;59017;-75
2023/04/09 04:08:31;;;;;;;23.90;16.50;;;;;;;3.52;100.00;97821.30;110288;1244;58875;-76
2023/04/09 04:11:04;;;;;;;24.70;16.30;;;;;;;3.51;100.00;97818.56;110252;1241;71213;-76
2023/04/09 04:13:35;;;;;;;19.70;15.40;;;;;;;3.50;100.00;97821.88;110205;1245;69368;-76
2023/04/09 04:16:08;;;;;;;23.00;15.60;;;;;;;3.47;100.00;97820.44;110779;1241;68529;-75
2023/04/09 04:18:40;;;;;;;22.20;17.10;;;;;;;3.48;100.00;97820.56;111655;1241;59002;-75
2023/04/09 04:21:16;;;;;;;21.60;15.70;;;;;;;3.49;100.00;97821.75;110059;1241;58921;-76
2023/04/09 04:23:54;;;;;;;27.40;18.40;;;;;;;3.50;100.00;97819.61;110321;1241;70251;-77
2023/04/09 04:26:27;;;;;;;32.60;22.50;;;;;;;3.52;100.00;97821.10;110188;1241;69289;-76
2023/04/09 04:28:56;;;;;;;27.50;19.70;;;;;;;3.54;100.00;97822.09;110237;1245;69169;-76
2023/04/09 04:31:44;;;;;;;33.20;21.80;;;;;;;3.53;100.00;97824.34;110145;1244;58890;-76
2023/04/09 04:34:13;;;;;;;30.40;20.50;;;;;;;3.52;100.00;97826.98;110147;1244;59336;-76
2023/04/09 04:36:46;;;;;;;28.50;20.50;;;;;;;3.53;100.00;97827.43;110289;1244;70516;-76
2023/04/09 04:39:15;;;;;;;30.10;20.30;;;;;;;3.55;100.00;97831.33;110273;1242;69461;-76
2023/04/09 04:41:58;;;;;;;28.10;19.50;;;;;;;3.59;100.00;97830.50;110240;1243;68737;-76
2023/04/09 04:44:28;;;;;;;;;;;;;;;3.61;100.00;97832.51;110232;1241;58934;-75
2023/04/09 04:47:05;;;;;;;26.30;18.30;;;;;;;3.65;100.00;97832.34;110094;1241;58956;-76
2023/04/09 04:49:34;;;;;;;22.60;17.00;;;;;;;3.68;100.00;97835.16;110270;1241;70593;-76
2023/04/09 04:52:04;;;;;;;27.10;20.50;;;;;;;3.70;100.00;97835.45;110271;1241;68459;-77
2023/04/09 04:54:34;;;;;;;27.80;20.50;;;;;;;3.72;99.99;97839.68;110274;1241;69086;-76
2023/04/09 04:57:04;;;;;;;33.00;24.90;;;;;;;3.72;100.00;97840.50;110093;1247;58961;-76
2023/04/09 04:59:39;;;;;;;32.70;24.60;;;;;;;3.73;100.00;97843.05;110264;1241;58943;-77
2023/04/09 05:02:10;;;;;;;26.30;21.30;;;;;;;3.76;100.00;97846.73;110269;1242;70390;-76
2023/04/09 05:04:58;;;;;;;30.00;22.90;;;;;;;3.80;100.00;97848.32;110272;1242;69345;-76
2023/04/09 05:07:33;;;;;;;27.70;21.60;;;;;;;3.83;99.71;97848.02;110225;1244;69869;-76
2023/04/09 05:10:02;;;;;;;29.50;22.20;;;;;;;3.86;99.37;97852.23;110249;1244;58947;-75
2023/04/09 05:12:36;;;;;;;30.50;21.80;;;;;;;3.86;99.29;97855.86;110120;1244;58869;-75
2023/04/09 05:15:06;;;;;;;38.00;26.00;;;;;;;3.87;99.63;97858.55;110108;1241;70620;-70
2023/04/09 05:17:36;;;;;;;30.00;21.20;;;;;;;3.90;100.00;97861.02;110157;1241;69797;-76
2023/04/09 05:20:06;;;;;;;29.80;21.40;;;;;;;3.96;100.00;97862.85;110276;1245;70158;-75
2023/04/09 05:22:44;;;;;;;30.00;22.00;;;;;;;4.02;100.00;97863.84;110198;1243;58836;-75
2023/04/09 05:25:14;;;;;;;30.30;21.70;;;;;;;4.07;100.00;97867.40;110072;1241;58849;-75
2023/04/09 05:27:44;;;;;;;29.40;21.70;;;;;;;4.14;100.00;97863.70;110080;1245;70019;-76
2023/04/09 05:30:13;;;;;;;27.60;19.70;;;;;;;4.20;100.00;97870.89;110488;1241;69139;-76
2023/04/09 05:32:42;;;;;;;29.50;20.90;;;;;;;4.26;100.00;97863.92;111801;1243;68523;-74
2023/04/09 05:35:11;;;;;;;27.90;20.20;;;;;;;4.29;100.00;97866.02;110398;1244;58886;-75
2023/04/09 05:37:42;;;;;;;33.10;23.60;;;;;;;4.37;100.00;97866.26;110321;1244;58937;-76
2023/04/09 05:40:12;;;;;;;29.70;21.50;;;;;;;4.43;99.98;97870.30;110218;1244;70696;-76
2023/04/09 05:42:41;;;;;;;34.20;24.00;;;;;;;4.49;99.39;97867.48;110100;1245;69250;-75
2023/04/09 05:45:14;;;;;;;39.40;28.90;;;;;;;4.54;99.14;97869.33;110215;1241;69896;-75
2023/04/09 05:47:48;;;;;;;34.60;26.00;;;;;;;4.56;99.11;97868.88;110201;1242;58862;-75
2023/04/09 05:50:20;;;;;;;33.60;25.60;;;;;;;4.63;99.85;97870.70;110212;1244;58917;-76
2023/04/09 05:52:50;;;;;;;39.10;29.70;;;;;;;4.72;100.00;97869.47;110273;1244;70249;-76
2023/04/09 05:55:19;;;;;;;37.90;29.00;;;;;;;4.80;100.00;97866.89;110249;1242;69071;-75
2023/04/09 05:57:53;;;;;;;36.40;26.00;;;;;;;4.90;99.87;97871.96;110242;1244;68553;-76
2023/04/09 06:00:22;;;;;;;31.70;24.60;;;;;;;5.00;99.19;97875.16;110266;1242;58871;-76
2023/04/09 06:02:50;;;;;;;31.10;22.80;;;;;;;5.09;98.75;97874.27;110190;1244;58909;-76
2023/04/09 06:05:20;;;;;;;31.20;23.60;;;;;;;5.20;97.86;97876.39;110227;1244;71194;-76
2023/04/09 06:07:48;;;;;;;29.10;22.80;;;;;;;5.32;97.53;97876.88;110234;1244;69614;-76
2023/04/09 06:10:17;;;;;;;36.00;26.40;;;;;;;5.41;96.86;97875.77;110215;1242;70170;-76
2023/04/09 06:12:47;;;;;;;31.50;23.30;;;;;;;5.52;96.54;97875.29;110216;1242;58937;-76
2023/04/09 06:15:16;;;;;;;33.10;24.40;;;;;;;5.67;95.78;97878.10;110240;1243;58953;-76
2023/04/09 06:17:44;;;;;;;38.80;27.10;;;;;;;5.80;95.74;97881.42;110265;1244;70641;-75
2023/04/09 06:20:13;;;;;;;37.90;29.40;;;;;;;5.95;95.49;97878.19;110229;1242;68412;-86
2023/04/09 06:22:42;;;;;;;40.10;29.60;;;;;;;6.10;93.83;97883.20;110266;1243;68348;-87
2023/04/09 06:25:11;;;;;;;45.70;32.10;;;;;;;6.27;94.08;97883.75;110284;1250;58957;-87
2023/04/09 06:27:39;;;;;;;39.10;28.50;;;;;;;6.43;91.79;97887.67;110265;1244;58910;-87
2023/04/09 06:30:09;;;;;;;36.40;28.30;;;;;;;6.60;89.84;97889.27;110323;1241;70437;-85
2023/04/09 06:32:38;;;;;;;35.10;26.40;;;;;;;6.79;86.66;97889.92;110448;1244;69218;-86
2023/04/09 06:35:20;;;;;;;24.50;19.40;;;;;;;7.03;84.79;97887.14;110588;1244;69277;-87
2023/04/09 06:37:49;;;;;;;28.30;18.60;;;;;;;7.28;87.22;97884.45;110572;1244;58959;-86
2023/04/09 06:40:19;;;;;;;22.30;18.20;;;;;;;7.50;82.10;97887.42;110610;1241;58877;-86
2023/04/09 06:42:50;;;;;;;24.20;18.90;;;;;;;7.73;81.36;97889.55;110302;1243;70407;-87
2023/04/09 06:45:28;;;;;;;24.30;18.40;;;;;;;8.01;82.98;97897.38;110528;1241;69622;-86
2023/04/09 06:47:56;;;;;;;20.50;17.00;;;;;;;8.45;83.67;97898.25;111670;1243;69116;-86
2023/04/09 06:50:25;;;;;;;17.80;14.00;;;;;;;8.92;75.50;97898.36;112088;1241;57399;-87
2023/04/09 06:52:54;;;;;;;15.40;12.30;;;;;;;9.28;72.82;97896.20;111257;1241;58957;-87
2023/04/09 06:55:23;;;;;;;18.60;14.50;;;;;;;9.84;73.14;97891.41;110254;1245;70350;-86
2023/04/09 06:57:52;;;;;;;16.40;13.60;;;;;;;9.94;62.76;97889.41;110266;1241;68688;-87
2023/04/09 07:00:21;;;;;;;18.10;13.80;;;;;;;10.21;60.67;97890.16;110278;1241;69204;-85
2023/04/09 07:02:52;;;;;;;17.30;14.50;;;;;;;10.54;61.32;97890.48;110238;1244;58859;-85
2023/04/09 07:05:21;;;;;;;18.10;14.70;;;;;;;11.12;63.65;97889.23;110277;1244;58976;-87
2023/04/09 07:07:50;;;;;;;15.10;13.40;;;;;;;11.40;59.43;97884.06;110287;1241;71164;-86
2023/04/09 07:10:18;;;;;;;17.80;14.70;;;;;;;11.47;58.60;97878.33;110262;1245;69106;-87
2023/04/09 07:12:47;;;;;;;18.50;13.90;;;;;;;11.71;58.35;97877.20;110260;1244;69923;-86
2023/04/09 07:15:16;;;;;;;18.30;14.60;;;;;;;11.93;57.69;97878.48;110236;1243;58922;-86
2023/04/09 07:17:44;;;;;;;14.80;12.60;;;;;;;12.16;56.05;97882.91;110287;1242;58844;-86
2023/04/09 07:20:13;;;;;;;15.50;12.80;;;;;;;12.57;56.71;97880.83;110239;1241;71068;-86
2023/04/09 07:22:42;;;;;;;15.40;12.60;;;;;;;12.95;54.38;97880.98;110231;1241;68567;-86
2023/04/09 07:25:10;;;;;;;15.10;13.00;;;;;;;13.30;54.58;97878.36;110277;1245;69074;-85
2023/04/09 07:27:39;;;;;;;15.00;12.90;;;;;;;13.70;53.09;97873.85;110256;1241;58884;-87
2023/04/09 07:30:09;;;;;;;17.00;13.20;;;;;;;13.95;51.97;97871.88;110169;1241;58928;-86
2023/04/09 07:32:38;;;;;;;15.90;12.30;;;;;;;14.18;51.26;97875.86;110351;1242;69671;-85
2023/04/09 07:35:08;;;;;;;14.80;12.20;;;;;;;14.44;49.31;97879.52;110275;1244;69697;-85
2023/04/09 07:37:37;;;;;;;14.10;12.10;;;;;;;14.65;49.05;97879.74;110277;1241;69330;-86
2023/04/09 07:40:07;;;;;;;16.60;14.00;;;;;;;14.73;48.21;97881.92;110260;1243;58998;-85
2023/04/09 07:42:38;;;;;;;;;;;;;;;14.84;48.55;97886.46;110317;1241;58895;-86
2023/04/09 07:45:07;;;;;;;14.10;11.30;;;;;;;14.71;47.37;97884.42;110265;1241;70419;-84
2023/04/09 07:47:39;;;;;;;14.50;12.50;;;;;;;14.44;46.47;97882.54;110400;1244;69223;-83
2023/04/09 07:50:08;;;;;;;14.60;12.50;;;;;;;14.15;47.13;97879.79;110326;1241;69268;-84
2023/04/09 07:52:37;;;;;;;14.30;12.30;;;;;;;13.82;47.29;97879.23;110274;1241;58903;-82
2023/04/09 07:55:06;;;;;;;17.20;13.30;;;;;;;13.58;47.11;97883.88;110260;1244;58878;-81
2023/04/09 07:57:35;;;;;;;15.60;12.90;;;;;;;12.96;49.04;97885.65;110348;1241;70399;-80
2023/04/09 08:00:06;;;;;;;14.10;12.00;;;;;;;12.97;48.92;97889.76;110853;1241;69044;-81
2023/04/09 08:02:41;;;;;;;13.80;12.40;;;;;;;13.28;48.91;97884.97;111180;1241;69308;-80
2023/04/09 08:05:10;;;;;;;14.30;12.30;;;;;;;13.16;48.22;97881.98;110882;1241;59140;-81
2023/04/09 08:07:39;;;;;;;14.20;12.20;;;;;;;13.52;48.80;97882.04;110335;1241;58937;-79
2023/04/09 08:10:13;;;;;;;13.00;10.90;;;;;;;14.04;48.93;97879.05;110224;1243;71168;-81
2023/04/09 08:12:42;;;;;;;14.50;12.80;;;;;;;14.44;47.36;97882.33;110229;1241;69786;-80
2023/04/09 08:15:11;;;;;;;15.40;13.60;;;;;;;14.74;46.97;97884.06;110265;1241;69044;-82
2023/04/09 08:17:39;;;;;;;14.60;13.10;;;;;;;15.10;44.29;97877.22;110198;1241;58950;-81
2023/04/09 08:20:09;;;;;;;15.20;12.60;;;;;;;15.56;45.12;97876.16;110230;1245;58883;-80
2023/04/09 08:22:39;;;;;;;12.70;11.40;;;;;;;15.93;44.23;97878.59;110270;1244;70671;-80
2023/04/09 08:25:08;;;;;;;14.20;12.70;;;;;;;16.37;43.54;97878.56;110320;1244;68598;-82
2023/04/09 08:27:38;;;;;;;13.80;12.30;;;;;;;16.60;42.38;97881.62;110240;1241;67530;-81
2023/04/09 08:30:08;;;;;;;12.80;11.00;;;;;;;16.69;41.29;97879.77;110257;1244;58926;-80
2023/04/09 08:32:37;;;;;;;14.30;12.40;;;;;;;16.64;40.28;97882.19;110256;1241;58941;-81
2023/04/09 08:35:06;;;;;;;14.40;12.60;;;;;;;16.33;40.36;97875.77;110209;1241;70532;-80
2023/04/09 08:37:34;;;;;;;14.60;13.10;;;;;;;16.13;40.08;97875.81;110235;1241;69689;-80
2023/04/09 08:40:03;;;;;;;11.90;10.10;;;;;;;15.98;40.87;97873.73;110253;1244;70297;-79
2023/04/09 08:42:34;;;;;;;13.20;11.70;;;;;;;16.94;40.03;97875.02;110268;1244;58943;-79
2023/04/09 08:45:04;;;;;;;13.60;11.90;;;;;;;17.75;39.83;97872.30;110259;1243;58834;-79
2023/04/09 08:47:35;;;;;;;11.30;10.10;;;;;;;18.08;38.43;97871.31;110200;1241;69859;-79
2023/04/09 08:50:05;;;;;;;12.50;11.20;;;;;;;18.51;39.16;97874.65;110271;1244;69053;-80
2023/04/09 08:52:35;;;;;;;13.40;12.00;;;;;;;18.66;37.71;97872.12;110245;1244;70210;-80
2023/04/09 08:55:04;;;;;;;13.10;11.70;;;;;;;17.62;36.47;97870.91;110219;1243;58931;-78
2023/04/09 08:57:37;;;;;;;10.10;9.00;;;;;;;17.15;36.83;97871.70;110265;1244;58900;-81
2023/04/09 09:00:07;;;;;;;11.50;10.30;;;;;;;17.38;36.67;97867.15;110251;1244;69938;-80
2023/04/09 09:02:37;;;;;;;;;;;;;;;17.49;36.91;97864.00;110273;1244;69659;-80
2023/04/09 09:05:06;;;;;;;12.80;10.20;;;;;;;17.84;36.20;97862.24;110235;1245;68526;-80
2023/04/09 09:07:35;;;;;;;11.60;10.50;;;;;;;18.70;37.06;97856.55;110245;1241;58870;-80
2023/04/09 09:10:04;;;;;;;11.10;10.00;;;;;;;19.16;35.63;97856.23;110252;1244;58850;-80
2023/04/09 09:12:37;;;;;;;12.90;11.40;;;;;;;19.70;34.70;97857.30;110396;1244;71152;-79
2023/04/09 09:15:26;;;;;;;11.80;10.60;;;;;;;20.52;34.16;97858.23;111477;1241;69227;-79
2023/04/09 09:17:58;;;;;;;11.70;10.50;;;;;;;20.79;32.95;97853.84;110590;1244;68523;-77
2023/04/09 09:20:27;;;;;;;11.70;10.60;;;;;;;21.41;33.36;97851.63;110231;1243;58950;-80
2023/04/09 09:22:56;;;;;;;;;;;;;;;21.59;32.73;97849.66;110310;1241;58905;-80
2023/04/09 09:25:25;;;;;;;10.40;9.30;;;;;;;20.54;31.29;97853.20;110326;1241;70595;-79
2023/04/09 09:27:54;;;;;;;10.80;9.30;;;;;;;19.10;32.72;97848.72;110283;1244;69365;-80
2023/04/09 09:30:26;;;;;;;11.10;10.00;;;;;;;18.75;33.50;97852.56;110273;1241;69725;-80
2023/04/09 09:33:06;;;;;;;10.70;9.60;;;;;;;18.35;34.23;97854.21;110249;1241;58955;-80
2023/04/09 09:35:53;;;;;;;9.90;8.90;;;;;;;18.09;34.34;97851.61;110314;1241;58834;-80
2023/04/09 09:38:22;;;;;;;11.80;9.70;;;;;;;18.00;34.02;97852.27;110426;1241;70621;-79
2023/04/09 09:40:51;;;;;;;10.30;8.20;;;;;;;17.91;34.21;97848.07;110362;1243;69240;-80
2023/04/09 09:43:20;;;;;;;9.40;8.20;;;;;;;17.97;34.90;97848.16;110303;1241;69096;-81
2023/04/09 09:45:49;;;;;;;10.40;9.30;;;;;;;17.57;36.83;97849.33;110276;1241;58947;-79
2023/04/09 09:48:18;;;;;;;11.30;10.10;;;;;;;17.24;37.52;97848.85;110250;1243;58896;-80
2023/04/09 09:50:49;;;;;;;13.20;10.80;;;;;;;17.11;36.63;97849.94;110227;1241;70419;-81
2023/04/09 09:53:21;;;;;;;12.90;10.80;;;;;;;16.26;37.49;97851.96;110247;1244;69254;-80
2023/04/09 09:55:52;;;;;;;11.60;10.20;;;;;;;15.87;39.25;97844.88;110236;1244;69233;-80
2023/04/09 09:58:30;;;;;;;13.10;11.70;;;;;;;15.77;40.50;97840.46;110242;1245;58912;-80
2023/04/09 10:01:01;;;;;;;13.20;11.00;;;;;;;15.30;41.78;97838.67;110262;1244;58946;-81
2023/04/09 10:03:33;;;;;;;14.00;11.80;;;;;;;15.02;43.34;97840.52;110261;1244;71598;-81
2023/04/09 10:06:03;;;;;;;13.50;10.10;;;;;;;14.82;42.98;97841.85;110245;1241;68206;-81
2023/04/09 10:08:33;;;;;;;11.50;9.90;;;;;;;14.59;44.88;97840.58;110241;1244;69498;-79
2023/04/09 10:11:03;;;;;;;14.30;12.10;;;;;;;14.37;45.28;97839.42;110312;1244;58918;-79
2023/04/09 10:13:42;;;;;;;13.60;11.60;;;;;;;13.96;46.12;97835.84;110284;1244;58886;-79
2023/04/09 10:16:11;;;;;;;12.30;10.40;;;;;;;13.86;46.32;97838.27;110277;1244;70609;-80
2023/04/09 10:18:41;;;;;;;13.90;11.70;;;;;;;13.78;47.11;97837.30;110265;1241;69257;-82
2023/04/09 10:21:46;;;;;;;14.90;11.30;;;;;;;13.45;47.95;97832.52;110230;1241;69842;-80
2023/04/09 10:24:15;;;;;;;11.90;9.90;;;;;;;13.30;48.23;97835.33;110365;1245;58915;-81
2023/04/09 10:26:44;;;;;;;13.40;9.80;;;;;;;13.34;47.75;97831.71;110709;1244;58891;-81
2023/04/09 10:29:15;;;;;;;12.10;10.40;;;;;;;13.39;47.92;97828.81;111141;1242;70388;-80
2023/04/09 10:31:46;;;;;;;12.10;10.00;;;;;;;13.39;49.64;97829.48;111618;1241;69851;-79
2023/04/09 10:34:17;;;;;;;14.20;11.20;;;;;;;13.18;51.69;97830.26;110342;1241;69126;-82
2023/04/09 10:36:52;;;;;;;13.00;10.80;;;;;;;13.14;50.56;97826.16;110302;1242;58941;-81
2023/04/09 10:39:31;;;;;;;14.50;10.90;;;;;;;13.07;50.31;97825.30;110397;1244;58911;-81
2023/04/09 10:42:13;;;;;;;13.70;10.80;;;;;;;13.04;49.97;97826.24;110289;1244;71151;-81
2023/04/09 10:44:42;;;;;;;9.80;7.80;;;;;;;12.98;50.21;97822.52;110320;1243;68239;-80
2023/04/09 10:47:11;;;;;;;9.60;8.40;;;;;;;12.97;49.07;97822.01;110310;1244;69874;-80
2023/04/09 10:49:41;;;;;;;12.10;9.90;;;;;;;12.93;48.64;97823.58;110329;1243;58950;-83
2023/04/09 10:52:12;;;;;;;14.40;11.60;;;;;;;12.95;49.86;97823.39;110295;1244;58857;-82
2023/04/09 10:54:45;;;;;;;13.10;10.20;;;;;;;12.78;49.90;97827.83;110263;1245;70496;-82
2023/04/09 10:57:20;;;;;;;12.50;10.40;;;;;;;12.60;49.38;97827.41;110373;1244;69045;-82
2023/04/09 10:59:51;;;;;;;14.90;10.90;;;;;;;12.45;51.18;97831.50;110300;1244;69735;-83
2023/04/09 11:02:38;;;;;;;12.40;10.60;;;;;;;12.43;50.76;97831.17;110327;1241;58879;-82
2023/04/09 11:05:16;;;;;;;11.20;9.40;;;;;;;12.52;49.68;97827.34;110280;1241;58797;-82
2023/04/09 11:07:56;;;;;;;11.30;8.80;;;;;;;12.55;49.02;97825.35;110303;1244;70468;-84
2023/04/09 11:10:25;;;;;;;13.40;10.70;;;;;;;12.64;49.42;97823.79;110270;1245;69129;-83
2023/04/09 11:12:54;;;;;;;12.00;9.90;;;;;;;12.73;49.74;97822.80;110314;1244;69317;-83
2023/04/09 11:15:22;;;;;;;12.50;10.60;;;;;;;12.85;49.89;97818.95;110280;1241;58831;-85
2023/04/09 11:17:51;;;;;;;12.30;9.80;;;;;;;12.90;50.13;97822.02;110352;1242;59373;-82
2023/04/09 11:20:22;;;;;;;13.80;10.50;;;;;;;13.12;48.02;97818.40;110328;1241;69402;-82
2023/04/09 11:22:53;;;;;;;12.80;9.60;;;;;;;13.53;47.73;97813.20;110361;1243;69250;-83
2023/04/09 11:25:25;;;;;;;13.80;11.00;;;;;;;14.30;47.43;97813.34;110410;1244;69329;-83
2023/04/09 11:27:54;;;;;;;13.30;10.50;;;;;;;15.19;45.90;97813.63;110249;1244;58882;-83
2023/04/09 11:30:23;;;;;;;12.20;10.00;;;;;;;16.22;43.54;97811.92;110266;1241;58906;-82
2023/04/09 11:32:52;;;;;;;12.70;10.40;;;;;;;17.32;42.44;97808.11;110331;1241;69779;-84
2023/04/09 11:35:21;;;;;;;11.70;10.10;;;;;;;18.36;41.73;97805.20;110372;1245;68327;-83